Time;durP1;ratioP1;P1;durP2;ratioP2;P2;SDS_P1;SDS_P2;PMS_P1;PMS_P2;Temp;Humidity;BMP_temperature;BMP_pressure;BME280_temperature;BME280_humidity;BME280_pressure;Samples;Min_cycle;Max_cycle;Signal;HPM_P1;HPM_P2
2022/06/03 00:01:11;;;;;;;20.05;9.27;;;;;;;12.46;88.01;101774.63;5125096;27;20114;-61
2022/06/03 00:04:20;;;;;;;20.05;9.48;;;;;;;12.46;89.89;101769.34;5118787;27;20053;-61
2022/06/03 00:06:57;;;;;;;20.40;9.38;;;;;;;12.40;89.90;101768.38;5120289;27;20497;-61
2022/06/03 00:09:39;;;;;;;20.23;9.57;;;;;;;12.30;90.81;101765.63;5123734;27;20046;-60
2022/06/03 00:12:29;;;;;;;20.23;9.73;;;;;;;12.30;90.79;101780.63;5117839;27;20114;-61
2022/06/03 00:15:09;;;;;;;20.60;9.90;;;;;;;12.25;92.43;101777.06;5122659;27;20027;-60
2022/06/03 00:17:43;;;;;;;20.13;9.52;;;;;;;12.24;93.10;101773.50;5117506;27;20473;-61
2022/06/03 00:20:31;;;;;;;20.20;9.70;;;;;;;12.24;92.29;101769.97;5118363;27;20023;-61
2022/06/03 00:23:34;;;;;;;19.42;9.35;;;;;;;12.17;93.05;101769.91;5123034;27;20061;-61
2022/06/03 00:26:10;;;;;;;19.80;9.40;;;;;;;12.14;95.44;101767.19;5124129;27;20398;-61
2022/06/03 00:28:36;;;;;;;19.55;9.63;;;;;;;12.15;95.42;101768.97;5117892;27;20031;-61
2022/06/03 00:31:10;;;;;;;20.13;9.90;;;;;;;12.08;97.53;101766.25;5124348;27;20031;-60
2022/06/03 00:33:55;;;;;;;21.08;10.07;;;;;;;12.09;95.93;101768.03;5117908;27;20032;-60
2022/06/03 00:36:55;;;;;;;19.95;9.77;;;;;;;12.02;96.63;101762.63;5121215;28;20024;-60
2022/06/03 00:39:48;;;;;;;19.95;9.85;;;;;;;11.99;98.30;101764.34;5121282;28;20091;-61
2022/06/03 00:42:49;;;;;;;21.35;10.23;;;;;;;11.94;98.90;101771.34;5119478;28;20088;-60
2022/06/03 00:45:46;;;;;;;19.88;10.48;;;;;;;11.84;100.00;101757.94;5119490;28;20103;-61
2022/06/03 00:48:11;;;;;;;20.85;10.25;;;;;;;11.80;100.00;101761.41;5118370;28;20097;-61
2022/06/03 00:50:42;;;;;;;20.42;9.52;;;;;;;11.81;100.00;101757.91;5124976;28;20023;-60
2022/06/03 00:53:49;;;;;;;20.55;9.73;;;;;;;11.79;100.00;101761.41;5117835;28;20458;-61
2022/06/03 00:56:42;;;;;;;20.48;9.75;;;;;;;11.76;100.00;101761.34;5076359;28;20048;-61
2022/06/03 00:59:13;;;;;;;20.25;9.75;;;;;;;11.75;100.00;101757.84;5074758;28;20106;-61
2022/06/03 01:01:52;;;;;;;20.63;9.93;;;;;;;11.75;100.00;101756.91;5074988;28;20032;-61
2022/06/03 01:04:32;;;;;;;21.63;10.05;;;;;;;11.74;100.00;101756.03;5077208;28;20115;-61
2022/06/03 01:07:16;;;;;;;20.40;10.23;;;;;;;11.75;100.00;101747.25;5079379;28;20024;-61
2022/06/03 01:10:07;;;;;;;19.90;9.68;;;;;;;11.78;100.00;101751.66;5075741;28;20441;-61
2022/06/03 01:13:12;;;;;;;20.20;9.85;;;;;;;11.81;100.00;101752.63;5078692;28;20025;-61
2022/06/03 01:15:47;;;;;;;20.85;10.20;;;;;;;11.80;100.00;101750.81;5074590;28;20035;-60
2022/06/03 01:18:50;;;;;;;19.80;9.63;;;;;;;11.85;100.00;101743.84;5075615;28;20447;-60
2022/06/03 01:21:31;;;;;;;;;;;;;;;11.88;99.56;101742.09;5077170;28;20040;-60
2022/06/03 01:24:26;;;;;;;21.80;10.02;;;;;;;11.83;100.00;101744.69;5079349;28;19908;-60
2022/06/03 01:27:10;;;;;;;19.35;9.88;;;;;;;11.86;100.00;101737.66;5078241;28;20414;-62
2022/06/03 01:30:03;;;;;;;20.50;10.52;;;;;;;11.82;100.00;101733.22;5084117;28;20097;-61
2022/06/03 01:32:56;;;;;;;21.02;10.13;;;;;;;11.82;100.00;101727.91;5122801;28;20498;-61
2022/06/03 01:36:01;;;;;;;20.33;10.55;;;;;;;11.86;100.00;101723.53;5121563;28;20035;-61
2022/06/03 01:38:56;;;;;;;20.38;10.40;;;;;;;11.84;100.00;101728.81;5122209;28;20066;-61
2022/06/03 01:41:55;;;;;;;20.35;10.25;;;;;;;11.79;100.00;101725.19;5121666;27;20098;-61
2022/06/03 01:44:48;;;;;;;20.92;10.70;;;;;;;11.78;100.00;101715.50;5124672;27;20027;-62
2022/06/03 01:47:25;;;;;;;21.08;10.65;;;;;;;11.74;100.00;101713.66;5122658;27;20059;-61
2022/06/03 01:50:12;;;;;;;20.27;10.27;;;;;;;11.68;100.00;101716.22;5126708;27;20031;-61
2022/06/03 01:53:19;;;;;;;20.73;10.43;;;;;;;11.64;100.00;101719.72;5121017;27;20055;-61
2022/06/03 01:55:47;;;;;;;20.45;10.50;;;;;;;11.53;100.00;101722.19;5122461;27;20039;-61
2022/06/03 01:58:32;;;;;;;21.83;10.02;;;;;;;11.56;100.00;101714.28;5127647;27;20371;-61
2022/06/03 02:01:08;;;;;;;20.27;10.02;;;;;;;11.54;100.00;101710.72;5126867;27;20374;-61
2022/06/03 02:03:55;;;;;;;20.98;10.60;;;;;;;11.49;100.00;101713.31;5124625;27;20024;-61
2022/06/03 02:06:57;;;;;;;21.25;10.60;;;;;;;11.45;100.00;101710.63;5124030;27;20028;-61
2022/06/03 02:09:25;;;;;;;20.48;10.75;;;;;;;11.39;100.00;101708.75;5124298;27;20466;-61
2022/06/03 02:12:02;;;;;;;20.90;10.70;;;;;;;11.36;100.00;101699.88;5108031;27;20184;-61
2022/06/03 02:14:59;;;;;;;20.98;10.35;;;;;;;11.34;100.00;101697.19;5126640;27;20468;-61
2022/06/03 02:17:27;;;;;;;21.50;10.85;;;;;;;11.28;100.00;101695.34;5124579;27;20016;-61
2022/06/03 02:20:14;;;;;;;21.15;11.05;;;;;;;11.25;100.00;101699.72;5125550;27;20029;-62
2022/06/03 02:23:24;;;;;;;22.00;11.35;;;;;;;11.25;100.00;101702.38;5120424;27;20415;-61
2022/06/03 02:26:08;;;;;;;20.73;10.50;;;;;;;11.18;100.00;101700.50;5123510;27;20386;-61
2022/06/03 02:28:48;;;;;;;21.20;11.05;;;;;;;11.18;100.00;101705.78;5124381;27;20370;-61
2022/06/03 02:31:36;;;;;;;20.90;11.43;;;;;;;11.15;100.00;101706.63;5121093;27;20023;-61
2022/06/03 02:34:13;;;;;;;21.35;11.68;;;;;;;11.11;100.00;101703.06;5124436;27;20023;-61
2022/06/03 02:36:56;;;;;;;21.77;12.15;;;;;;;11.07;100.00;101697.69;5119972;27;20024;-61
2022/06/03 02:40:01;;;;;;;21.52;11.93;;;;;;;11.07;100.00;101697.69;5123912;27;20355;-61
2022/06/03 02:43:03;;;;;;;21.80;11.98;;;;;;;11.01;100.00;101700.22;5124494;27;20039;-60
2022/06/03 02:46:08;;;;;;;21.13;12.13;;;;;;;10.99;100.00;101700.19;5125069;27;20487;-60
2022/06/03 02:49:03;;;;;;;23.13;12.30;;;;;;;10.97;100.00;101689.59;5126680;27;20019;-61
2022/06/03 02:51:47;;;;;;;21.83;12.38;;;;;;;10.94;100.00;101683.38;5125225;27;20063;-60
2022/06/03 02:54:46;;;;;;;23.13;13.20;;;;;;;10.90;100.00;101681.53;5119774;27;20065;-60
2022/06/03 02:57:37;;;;;;;22.13;12.80;;;;;;;10.79;100.00;101686.63;5120021;27;20039;-60
2022/06/03 03:00:18;;;;;;;22.08;12.75;;;;;;;10.76;100.00;101690.13;5123892;27;20417;-60
2022/06/03 03:02:55;;;;;;;22.10;12.88;;;;;;;10.70;100.00;101687.38;5120651;27;20103;-61
2022/06/03 03:05:21;;;;;;;22.42;12.95;;;;;;;10.70;100.00;101692.66;5125352;27;20029;-61
2022/06/03 03:08:08;;;;;;;22.35;13.07;;;;;;;10.69;100.00;101692.63;5124318;27;20110;-60
2022/06/03 03:10:58;;;;;;;22.45;12.90;;;;;;;10.68;100.00;101697.03;5123501;27;20023;-60
2022/06/03 03:13:58;;;;;;;21.98;12.95;;;;;;;10.67;100.00;101695.25;5123138;27;20020;-60
2022/06/03 03:17:01;;;;;;;21.98;12.90;;;;;;;10.68;100.00;101698.81;5102354;27;20398;-60
2022/06/03 03:19:54;;;;;;;23.30;13.45;;;;;;;10.63;100.00;101682.88;5123674;27;20052;-60
2022/06/03 03:22:29;;;;;;;;;;;;;;;10.65;100.00;101678.47;5122068;27;20030;-60
2022/06/03 03:25:16;;;;;;;22.70;13.40;;;;;;;10.59;100.00;101683.66;5124395;27;19911;-61
2022/06/03 03:28:02;;;;;;;22.35;12.90;;;;;;;10.61;100.00;101679.28;5101051;27;20032;-60
2022/06/03 03:30:38;;;;;;;22.42;12.95;;;;;;;10.59;100.00;101681.03;5124046;27;20047;-60
2022/06/03 03:34:00;;;;;;;22.50;12.80;;;;;;;10.57;100.00;101675.72;5125549;27;20035;-60
2022/06/03 03:37:05;;;;;;;23.38;13.25;;;;;;;10.53;100.00;101671.22;5061162;28;20033;-61
2022/06/03 03:39:39;;;;;;;23.23;13.07;;;;;;;10.45;100.00;101668.41;5061413;28;20535;-60
2022/06/03 03:42:44;;;;;;;23.38;12.80;;;;;;;10.41;100.00;101666.63;5059617;28;20048;-60
2022/06/03 03:45:21;;;;;;;21.70;12.40;;;;;;;10.38;100.00;101666.56;5055659;28;20123;-61
2022/06/03 03:48:14;;;;;;;22.50;12.77;;;;;;;10.38;100.00;101674.50;5057411;28;20116;-60
2022/06/03 03:50:49;;;;;;;;;;;;;;;10.40;100.00;101672.75;5056193;28;20028;-60
2022/06/03 03:53:38;;;;;;;21.95;12.27;;;;;;;10.38;100.00;101666.56;5056527;28;19913;-61
2022/06/03 03:56:25;;;;;;;21.95;12.50;;;;;;;10.36;100.00;101665.63;5059518;28;20024;-61
2022/06/03 03:59:09;;;;;;;22.35;12.80;;;;;;;10.34;100.00;101666.44;5058124;28;20036;-63
2022/06/03 04:01:59;;;;;;;22.77;12.98;;;;;;;10.38;100.00;101665.66;5059274;28;20040;-63
2022/06/03 04:04:30;;;;;;;22.35;12.75;;;;;;;10.33;100.00;101662.03;5059107;28;20032;-63
2022/06/03 04:07:14;;;;;;;22.67;12.77;;;;;;;10.35;100.00;101662.97;5088286;27;20039;-63
2022/06/03 04:10:10;;;;;;;22.48;13.38;;;;;;;10.36;100.00;101655.06;5099868;28;20416;-63
2022/06/03 04:12:53;;;;;;;22.75;13.30;;;;;;;10.39;100.00;101656.88;5125090;27;20023;-63
2022/06/03 04:15:46;;;;;;;23.75;13.50;;;;;;;10.38;100.00;101656.00;5120102;27;20513;-62
2022/06/03 04:18:28;;;;;;;22.10;13.15;;;;;;;10.41;100.00;101656.03;5118403;27;20137;-63
2022/06/03 04:21:17;;;;;;;23.08;13.38;;;;;;;10.48;100.00;101662.31;5121645;27;20073;-63
2022/06/03 04:24:04;;;;;;;22.75;13.70;;;;;;;10.51;100.00;101654.44;5118533;27;20032;-63
2022/06/03 04:26:51;;;;;;;23.15;13.65;;;;;;;10.56;100.00;101652.78;5122884;27;20019;-63
2022/06/03 04:29:38;;;;;;;23.27;13.05;;;;;;;10.58;100.00;101650.16;5119347;27;20535;-63
2022/06/03 04:32:03;;;;;;;23.00;13.43;;;;;;;10.66;100.00;101632.69;5103521;28;20035;-63
2022/06/03 04:34:50;;;;;;;22.77;13.50;;;;;;;10.69;100.00;101632.72;5123928;27;20024;-63
2022/06/03 04:37:29;;;;;;;23.10;14.25;;;;;;;10.71;100.00;101643.31;5119160;28;20390;-63
2022/06/03 04:40:31;;;;;;;23.52;13.82;;;;;;;10.74;100.00;101643.38;5123235;28;20080;-63
2022/06/03 04:43:41;;;;;;;23.17;13.98;;;;;;;10.81;100.00;101653.19;5121906;28;20048;-63
2022/06/03 04:46:31;;;;;;;22.38;12.88;;;;;;;10.87;100.00;101660.34;5117512;28;20031;-63
2022/06/03 04:49:10;;;;;;;22.95;13.93;;;;;;;10.91;100.00;101664.81;5121808;28;20055;-63
2022/06/03 04:51:50;;;;;;;23.40;13.75;;;;;;;10.94;100.00;101664.84;5121910;28;20027;-63
2022/06/03 04:54:47;;;;;;;22.95;13.65;;;;;;;11.00;100.00;101670.22;5119332;28;20034;-63
2022/06/03 04:57:13;;;;;;;22.70;13.82;;;;;;;11.09;100.00;101674.78;5117286;28;20035;-62
2022/06/03 05:00:04;;;;;;;22.40;12.85;;;;;;;11.11;100.00;101666.00;5125323;28;20466;-63
2022/06/03 05:02:48;;;;;;;23.00;13.77;;;;;;;11.17;100.00;101665.22;5123286;28;20036;-63
2022/06/03 05:05:16;;;;;;;24.08;13.75;;;;;;;11.19;100.00;101667.88;5118382;28;20543;-63
2022/06/03 05:08:03;;;;;;;24.42;13.55;;;;;;;11.24;100.00;101663.53;5124655;28;20462;-63
2022/06/03 05:11:17;;;;;;;23.65;14.38;;;;;;;11.31;100.00;101666.31;5122403;28;20482;-63
2022/06/03 05:14:12;;;;;;;23.52;14.00;;;;;;;11.39;100.00;101658.47;5117711;28;20039;-62
2022/06/03 05:17:03;;;;;;;23.45;14.05;;;;;;;11.47;100.00;101666.50;5118201;27;20031;-63
2022/06/03 05:19:31;;;;;;;24.75;14.55;;;;;;;11.51;100.00;101663.91;5126200;27;20110;-61
2022/06/03 05:22:28;;;;;;;23.85;14.57;;;;;;;11.57;100.00;101659.59;5126665;27;20055;-62
2022/06/03 05:25:05;;;;;;;23.17;14.35;;;;;;;11.65;100.00;101655.28;5125061;27;20209;-63
2022/06/03 05:27:58;;;;;;;23.92;14.60;;;;;;;11.77;100.00;101660.72;5126048;27;20053;-61
2022/06/03 05:30:33;;;;;;;24.55;14.98;;;;;;;11.81;100.00;101656.34;5124646;27;20035;-61
2022/06/03 05:33:01;;;;;;;24.17;15.63;;;;;;;11.97;100.00;101649.50;5125818;27;20043;-62
2022/06/03 05:35:52;;;;;;;24.00;15.30;;;;;;;12.06;100.00;101654.91;5127271;27;20108;-61
2022/06/03 05:38:53;;;;;;;24.42;15.23;;;;;;;12.10;100.00;101658.47;5110801;27;20398;-64
2022/06/03 05:44:46;;;;;;;23.30;14.80;;;;;;;12.30;100.00;101651.63;5120510;27;20033;-63
2022/06/03 05:47:33;;;;;;;24.80;14.90;;;;;;;12.32;100.00;101657.84;5119095;27;20027;-64
2022/06/03 05:50:14;;;;;;;23.95;15.25;;;;;;;12.45;100.00;101650.91;5122430;27;20031;-63
2022/06/03 05:53:04;;;;;;;25.58;15.30;;;;;;;12.56;100.00;101651.84;5121975;27;20028;-63
2022/06/03 05:55:48;;;;;;;23.60;14.57;;;;;;;12.58;100.00;101649.22;5119022;27;20027;-64
2022/06/03 05:58:29;;;;;;;23.52;14.30;;;;;;;12.67;100.00;101645.78;5116502;27;20031;-64
2022/06/03 06:01:20;;;;;;;23.25;14.07;;;;;;;12.72;100.00;101654.66;5117489;27;20028;-64
2022/06/03 06:03:59;;;;;;;23.92;14.15;;;;;;;12.78;100.00;101657.34;5100215;28;20051;-63
2022/06/03 06:06:34;;;;;;;23.45;14.65;;;;;;;12.85;100.00;101653.88;5094261;28;20024;-64
2022/06/03 06:09:05;;;;;;;24.30;14.65;;;;;;;12.90;100.00;101654.81;5094411;28;20039;-64
2022/06/03 06:12:01;;;;;;;24.10;14.30;;;;;;;12.96;100.00;101655.72;5096535;28;20458;-64
2022/06/03 06:15:09;;;;;;;23.42;13.63;;;;;;;13.01;100.00;101652.22;5094668;28;20130;-64
2022/06/03 06:17:47;;;;;;;23.48;13.55;;;;;;;13.08;100.00;101650.50;5096321;28;20035;-63
2022/06/03 06:20:21;;;;;;;23.13;13.55;;;;;;;13.17;100.00;101657.66;5093961;28;20024;-64
2022/06/03 06:22:49;;;;;;;25.27;13.63;;;;;;;13.25;100.00;101666.53;5094359;28;20515;-64
2022/06/03 06:25:14;;;;;;;22.70;13.75;;;;;;;13.34;100.00;101660.38;5098260;28;20024;-63
2022/06/03 06:27:57;;;;;;;22.50;13.13;;;;;;;13.40;100.00;101665.78;5095738;28;20518;-64
2022/06/03 06:30:34;;;;;;;;;;;;;;;13.45;100.00;101660.50;5096174;28;20107;-65
2022/06/03 06:33:14;;;;;;;23.13;13.60;;;;;;;13.55;100.00;101652.56;5092852;28;19923;-63
2022/06/03 06:36:25;;;;;;;22.92;13.50;;;;;;;13.64;100.00;101669.44;5095876;28;20031;-63
2022/06/03 06:39:07;;;;;;;23.70;13.60;;;;;;;13.72;100.00;101663.28;5092272;28;20086;-64
2022/06/03 06:41:47;;;;;;;23.17;13.25;;;;;;;13.81;100.00;101667.75;5112330;27;20043;-65
2022/06/03 06:44:35;;;;;;;22.92;13.70;;;;;;;13.87;100.00;101654.47;5118466;27;20055;-63
2022/06/03 06:47:22;;;;;;;23.65;13.68;;;;;;;13.97;100.00;101651.88;5119794;27;20031;-62
2022/06/03 06:50:06;;;;;;;22.70;13.43;;;;;;;14.09;100.00;101667.84;5120139;27;20034;-62
2022/06/03 06:52:52;;;;;;;22.60;12.38;;;;;;;14.19;100.00;101653.69;5122824;27;20031;-63
2022/06/03 06:55:29;;;;;;;22.58;12.77;;;;;;;14.33;100.00;101658.13;5118026;27;20101;-63
2022/06/03 06:58:02;;;;;;;23.08;12.98;;;;;;;14.42;100.00;101653.72;5121863;27;20110;-64
2022/06/03 07:00:34;;;;;;;22.77;13.65;;;;;;;14.53;100.00;101653.72;5118330;27;20381;-64
2022/06/03 07:03:14;;;;;;;22.90;13.00;;;;;;;14.61;99.06;101656.41;5116863;27;20028;-64
2022/06/03 07:05:39;;;;;;;23.48;13.48;;;;;;;14.69;99.70;101653.78;5121835;27;20034;-64
2022/06/03 07:08:07;;;;;;;25.00;13.07;;;;;;;14.74;98.94;101644.91;5119313;27;20122;-64
2022/06/03 07:10:42;;;;;;;23.35;12.80;;;;;;;14.82;96.95;101650.22;5116012;27;20551;-64
2022/06/03 07:13:29;;;;;;;23.30;12.75;;;;;;;14.91;95.80;101655.56;5119638;27;20089;-64
2022/06/03 07:16:07;;;;;;;21.75;12.23;;;;;;;15.07;95.64;101656.44;5121946;27;20024;-64
2022/06/03 07:21:41;;;;;;;21.70;11.80;;;;;;;15.27;92.16;101645.72;5121110;27;20038;-64
2022/06/03 07:24:20;;;;;;;23.45;13.27;;;;;;;15.33;92.01;101640.41;5118079;27;20032;-64
2022/06/03 07:26:53;;;;;;;23.17;13.30;;;;;;;15.43;91.22;101640.38;5120683;27;20377;-64
2022/06/03 07:29:27;;;;;;;22.75;12.10;;;;;;;15.50;90.72;101639.47;5118015;27;20076;-61
2022/06/03 07:32:05;;;;;;;22.20;12.63;;;;;;;15.60;89.58;101635.84;5114790;27;20130;-64
2022/06/03 07:34:58;;;;;;;23.35;13.43;;;;;;;15.67;87.02;101642.94;5118663;27;20023;-63
2022/06/03 07:37:29;;;;;;;23.13;13.20;;;;;;;15.72;85.70;101644.72;5117497;27;20028;-63
2022/06/03 07:40:09;;;;;;;22.67;13.13;;;;;;;15.84;85.92;101642.91;5118538;27;20027;-62
2022/06/03 07:42:47;;;;;;;23.20;13.27;;;;;;;15.94;86.12;101637.50;5116048;27;20067;-63
2022/06/03 07:45:36;;;;;;;23.65;13.55;;;;;;;16.04;84.04;101632.09;5115826;27;20441;-63
2022/06/03 07:48:05;;;;;;;23.45;13.27;;;;;;;16.20;83.79;101642.69;5115838;27;20536;-63
2022/06/03 07:50:36;;;;;;;23.02;12.98;;;;;;;16.34;84.54;101638.16;5119317;27;20024;-62
2022/06/03 07:53:11;;;;;;;22.55;13.57;;;;;;;16.47;84.70;101630.06;5116797;27;20026;-62
2022/06/03 07:55:37;;;;;;;23.20;13.82;;;;;;;16.56;83.48;101630.00;5114122;27;20055;-61
2022/06/03 07:58:08;;;;;;;23.00;14.00;;;;;;;16.68;82.44;101642.34;5099179;28;20035;-61
2022/06/03 08:00:38;;;;;;;23.02;14.13;;;;;;;16.73;78.43;101643.19;5120575;27;20100;-62
2022/06/03 08:03:14;;;;;;;22.90;13.88;;;;;;;16.87;80.02;101640.41;5116875;27;20573;-61
2022/06/03 08:05:42;;;;;;;23.17;13.35;;;;;;;16.98;78.88;101632.31;5116259;27;20024;-61
2022/06/03 08:11:04;;;;;;;23.17;14.18;;;;;;;17.36;77.48;101631.91;5115587;27;20042;-61
2022/06/03 08:13:38;;;;;;;24.10;13.88;;;;;;;17.55;76.45;101629.03;5115370;27;20020;-61
2022/06/03 08:16:07;;;;;;;23.40;13.70;;;;;;;17.72;76.00;101615.44;5118506;27;20370;-62
2022/06/03 08:18:40;;;;;;;22.92;13.50;;;;;;;17.75;71.04;101600.25;5116116;27;20031;-62
2022/06/03 08:21:08;;;;;;;24.05;13.57;;;;;;;17.93;71.03;101600.94;5117729;27;20532;-64
2022/06/03 08:23:34;;;;;;;23.13;13.05;;;;;;;18.11;70.64;101598.00;5118617;27;20022;-63
2022/06/03 08:26:04;;;;;;;22.70;13.13;;;;;;;18.42;71.83;101589.47;5118562;27;20019;-64
2022/06/03 08:28:33;;;;;;;22.38;13.32;;;;;;;18.67;71.73;101597.09;5114513;27;20053;-67
2022/06/03 08:31:02;;;;;;;22.30;13.50;;;;;;;18.80;68.81;101598.63;5113428;28;20019;-65
2022/06/03 08:33:41;;;;;;;23.55;13.13;;;;;;;18.79;66.87;101607.56;5100084;28;20078;-65
2022/06/03 08:36:13;;;;;;;22.20;13.48;;;;;;;18.91;67.30;101602.94;5117652;27;20027;-64
2022/06/03 08:38:42;;;;;;;21.92;13.20;;;;;;;19.01;66.26;101596.50;5116234;28;20092;-65
2022/06/03 08:41:26;;;;;;;24.27;13.80;;;;;;;19.28;68.32;101604.91;5117037;28;20031;-63
2022/06/03 08:44:08;;;;;;;23.05;13.48;;;;;;;19.46;65.53;101603.66;5113595;28;20458;-62
2022/06/03 08:46:49;;;;;;;22.60;13.05;;;;;;;19.57;63.40;101598.97;5116703;28;20072;-61
2022/06/03 08:49:20;;;;;;;22.00;12.60;;;;;;;19.76;63.37;101601.22;5112096;28;20023;-63
2022/06/03 08:51:52;;;;;;;22.10;13.05;;;;;;;19.90;61.52;101603.66;5116102;27;20073;-63
2022/06/03 08:54:35;;;;;;;21.85;12.52;;;;;;;20.12;62.80;101604.91;5121184;27;20067;-63
2022/06/03 08:57:07;;;;;;;25.77;12.57;;;;;;;20.22;57.20;101612.75;5114798;28;20024;-62
2022/06/03 08:59:45;;;;;;;23.60;12.70;;;;;;;20.39;58.80;101607.88;5119953;27;20093;-62
2022/06/03 09:02:23;;;;;;;22.63;11.95;;;;;;;20.57;59.24;101611.00;5120255;27;20023;-63
2022/06/03 09:05:00;;;;;;;20.70;11.73;;;;;;;20.73;56.30;101609.72;5119906;27;20078;-64
2022/06/03 09:07:38;;;;;;;20.85;11.68;;;;;;;20.85;55.46;101606.72;5125060;27;20419;-64
2022/06/03 09:10:30;;;;;;;22.33;11.20;;;;;;;21.04;55.60;101607.13;5120599;27;20035;-64
2022/06/03 09:13:06;;;;;;;22.42;11.60;;;;;;;21.16;52.86;101594.22;5123356;27;20031;-64
2022/06/03 09:15:38;;;;;;;22.40;11.90;;;;;;;21.33;54.00;101601.84;5120464;27;20023;-65
2022/06/03 09:18:13;;;;;;;;;;;;;;;21.48;54.37;101605.88;5122914;27;20030;-65
2022/06/03 09:20:45;;;;;;;20.65;12.00;;;;;;;21.70;53.87;101600.78;5114003;27;19968;-64
2022/06/03 09:23:16;;;;;;;21.27;11.27;;;;;;;21.69;50.88;101610.66;5119595;27;20468;-63
2022/06/03 09:25:47;;;;;;;22.15;10.20;;;;;;;21.76;49.90;101601.47;5117769;27;20019;-63
2022/06/03 09:28:20;;;;;;;21.08;10.30;;;;;;;21.58;49.85;101613.69;5120885;27;20371;-64
2022/06/03 09:30:46;;;;;;;19.77;10.30;;;;;;;21.67;51.23;101607.16;5123458;27;20030;-64
2022/06/03 09:33:15;;;;;;;21.05;10.95;;;;;;;21.81;48.42;101598.63;5123102;27;20047;-64
2022/06/03 09:35:45;;;;;;;22.63;9.93;;;;;;;21.93;48.01;101594.69;5101389;28;20042;-64
2022/06/03 09:38:13;;;;;;;19.48;9.25;;;;;;;22.06;47.40;101598.75;5119500;27;20036;-64
2022/06/03 09:40:44;;;;;;;19.35;8.80;;;;;;;22.21;47.45;101592.00;5120833;27;20100;-65
2022/06/03 09:43:22;;;;;;;20.17;8.33;;;;;;;22.46;47.67;101586.69;5118944;27;20160;-64
2022/06/03 09:45:50;;;;;;;18.95;8.13;;;;;;;22.69;47.18;101586.84;5114110;27;20024;-65
2022/06/03 09:48:20;;;;;;;19.38;8.23;;;;;;;22.85;44.06;101593.47;5117028;27;20482;-65
2022/06/03 09:50:50;;;;;;;18.40;7.90;;;;;;;23.00;46.18;101583.09;5125620;27;20027;-65
2022/06/03 09:53:19;;;;;;;18.00;7.47;;;;;;;23.15;42.23;101590.63;5122945;27;20036;-64
2022/06/03 09:55:51;;;;;;;18.63;7.57;;;;;;;23.31;40.92;101582.84;5125356;27;20027;-64
2022/06/03 09:58:19;;;;;;;;;;;;;;;23.38;44.32;101586.22;5118923;27;20479;-65
2022/06/03 10:00:51;;;;;;;17.25;6.70;;;;;;;24.07;39.97;101583.56;5122040;27;19950;-65
2022/06/03 10:03:17;;;;;;;16.95;6.10;;;;;;;25.65;36.48;101574.00;5119707;27;20112;-64
2022/06/03 10:05:49;;;;;;;15.77;5.38;;;;;;;27.23;33.07;101572.34;5123551;27;20027;-65
2022/06/03 10:08:16;;;;;;;14.82;5.30;;;;;;;28.32;29.84;101576.22;5125878;27;20023;-64
2022/06/03 10:13:31;;;;;;;11.35;4.53;;;;;;;30.04;26.49;101574.63;5124538;27;20031;-62
2022/06/03 10:15:59;;;;;;;13.30;5.05;;;;;;;30.57;26.80;101570.16;5127722;27;20031;-62
2022/06/03 10:18:43;;;;;;;15.30;5.70;;;;;;;31.30;26.19;101576.03;5124221;27;20042;-62
2022/06/03 10:21:10;;;;;;;14.55;4.95;;;;;;;31.76;25.50;101575.41;5104032;27;20028;-63
2022/06/03 10:23:41;;;;;;;12.23;4.50;;;;;;;32.18;23.51;101566.00;5127077;27;20378;-62
2022/06/03 10:26:07;;;;;;;12.98;4.28;;;;;;;33.02;23.14;101567.63;5125089;27;20049;-63
2022/06/03 10:28:35;;;;;;;9.43;3.50;;;;;;;33.57;21.64;101553.25;5127407;27;20454;-63
2022/06/03 10:31:12;;;;;;;13.90;4.63;;;;;;;33.39;21.90;101549.25;5124332;27;20062;-62
2022/06/03 10:33:38;;;;;;;12.30;4.50;;;;;;;32.62;22.00;101546.16;5121628;27;20039;-63
2022/06/03 10:36:04;;;;;;;10.00;3.80;;;;;;;32.70;23.96;101547.44;5127539;27;20023;-63
2022/06/03 10:38:33;;;;;;;11.27;4.25;;;;;;;32.50;22.29;101544.34;5123585;27;20110;-62
2022/06/03 10:41:05;;;;;;;12.52;4.10;;;;;;;32.88;23.43;101545.97;5119491;27;20471;-65
2022/06/03 10:43:32;;;;;;;10.02;3.78;;;;;;;33.13;22.26;101546.72;5120140;27;20420;-65
2022/06/03 10:46:27;;;;;;;11.10;3.88;;;;;;;33.28;23.50;101551.00;5119176;27;20020;-65
2022/06/03 10:48:52;;;;;;;10.70;3.72;;;;;;;33.34;21.64;101545.03;5082719;28;20037;-65
2022/06/03 11:02:34;;;;;;;8.52;3.80;;;;;;;34.70;20.60;101539.16;5077251;28;20112;-65
2022/06/03 11:05:21;;;;;;;9.07;3.53;;;;;;;34.71;19.84;101534.53;5083662;28;20068;-66
2022/06/03 11:08:07;;;;;;;11.00;3.90;;;;;;;35.03;20.70;101537.19;5080625;28;20063;-65
2022/06/03 11:10:43;;;;;;;6.72;3.30;;;;;;;35.50;20.13;101535.81;5076596;28;20031;-65
2022/06/03 11:13:13;;;;;;;9.07;3.20;;;;;;;36.05;19.06;101532.63;5078194;28;20033;-65
2022/06/03 11:15:41;;;;;;;6.68;2.85;;;;;;;36.12;18.12;101529.13;5082245;28;20035;-66
2022/06/03 11:18:29;;;;;;;12.52;3.80;;;;;;;35.86;19.82;101533.47;5080417;28;20087;-65
2022/06/03 11:20:56;;;;;;;10.45;3.78;;;;;;;35.72;18.96;101524.59;5080557;28;20387;-66
2022/06/03 11:23:22;;;;;;;11.35;3.45;;;;;;;35.77;19.45;101527.78;5082467;28;20028;-66
2022/06/03 11:26:00;;;;;;;6.70;3.00;;;;;;;36.28;18.84;101530.44;5112199;27;20031;-65
2022/06/03 11:28:39;;;;;;;7.82;3.10;;;;;;;36.37;18.35;101526.00;5126289;27;20031;-66
2022/06/03 11:31:10;;;;;;;6.93;2.90;;;;;;;35.87;18.58;101514.09;5119699;27;20111;-65
2022/06/03 11:33:36;;;;;;;6.50;2.90;;;;;;;35.85;17.33;101515.22;5125807;27;20039;-65
2022/06/03 11:36:10;;;;;;;8.50;3.40;;;;;;;35.02;18.31;101507.97;5113819;27;20114;-62
2022/06/03 11:38:41;;;;;;;9.10;3.50;;;;;;;33.94;20.59;101516.44;5117359;27;20048;-63
2022/06/03 11:41:14;;;;;;;5.73;2.90;;;;;;;34.19;18.73;101515.19;5124453;27;20482;-63
2022/06/03 11:43:57;;;;;;;5.30;2.70;;;;;;;35.24;19.72;101517.03;5124096;27;20107;-63
2022/06/03 11:46:53;;;;;;;7.95;3.20;;;;;;;36.21;19.63;101510.03;5118495;27;20027;-63
2022/06/03 11:49:21;;;;;;;8.77;3.55;;;;;;;36.76;17.76;101517.66;5042160;28;20591;-63
2022/06/03 11:51:47;;;;;;;10.75;3.25;;;;;;;36.58;18.98;101509.28;5039709;28;20037;-63
2022/06/03 11:54:15;;;;;;;9.40;3.45;;;;;;;36.93;18.33;101518.78;5041550;28;20128;-63
2022/06/03 11:56:43;;;;;;;8.98;3.40;;;;;;;36.83;17.00;101515.19;5040834;28;20028;-63
2022/06/03 11:59:26;;;;;;;6.70;2.97;;;;;;;36.11;18.55;101521.03;5040687;28;20037;-63
2022/06/03 12:01:51;;;;;;;10.25;3.53;;;;;;;35.97;16.99;101518.72;5039123;28;20445;-63
2022/06/03 12:04:39;;;;;;;8.48;3.47;;;;;;;35.72;18.97;101524.59;5041925;28;20056;-63
2022/06/03 12:07:21;;;;;;;8.38;3.20;;;;;;;36.13;17.01;101525.38;5037712;28;20044;-63
2022/06/03 12:10:04;;;;;;;10.50;3.50;;;;;;;37.65;17.46;101527.31;5039884;28;20068;-63
2022/06/03 12:15:25;;;;;;;8.48;3.42;;;;;;;38.31;16.01;101522.50;5039171;28;20412;-64
2022/06/03 12:17:50;;;;;;;7.70;3.50;;;;;;;38.65;15.49;101513.44;5042212;28;20041;-64
2022/06/03 12:20:36;;;;;;;7.88;3.45;;;;;;;38.62;15.11;101511.00;5039710;28;20041;-63
2022/06/03 12:23:13;;;;;;;7.47;3.50;;;;;;;39.45;16.02;101504.03;5025097;28;20395;-64
2022/06/03 12:25:51;;;;;;;9.63;3.38;;;;;;;39.79;16.21;101504.00;5046516;28;20111;-64
2022/06/03 12:28:42;;;;;;;9.23;3.80;;;;;;;39.44;16.04;101499.53;5122320;27;20062;-63
2022/06/03 12:31:15;;;;;;;9.80;3.50;;;;;;;38.91;15.82;101502.41;5121002;27;20072;-64
2022/06/03 12:34:05;;;;;;;7.68;3.40;;;;;;;38.18;16.98;101489.75;5122721;27;20157;-63
2022/06/03 12:36:38;;;;;;;8.35;3.40;;;;;;;38.62;16.17;101492.56;5118712;27;20028;-63